Terminal Aerodrome Forecast
Issued by NWS Tampa Bay Area, FL

Home | Current Version | Previous Version | Text Only | Print | Product List | Glossary On
Versions: 1 2 3 4 5 6 7 8 9 10 11 12 13 14 15 16 17 18
000
FTUS42 KTBW 270523
TAFSRQ
TAF
KSRQ 270523Z 2706/2806 08010KT P6SM SKC
     FM271200 10010KT P6SM FEW040 SCT250
     FM271400 13013G20KT P6SM SCT040 SCT250
     FM272000 22012G18KT P6SM FEW050 SCT250
     FM272300 21006KT P6SM FEW040 SCT250=

USA.gov is the U.S. government's official web portal to all federal, state and local government web resources and services.